Pittsburgh, Pennsylvania
Traffic Map
Current Weather Conditions
Pittsburgh, Pennsylvania
Clear
Clear
44°
Feels Like: 40°
Wind Chill: 40° Ceiling: Unl
Heat Index: 44° Visibility: 10mi
Dew Point: 25° Wind: 7mph
Humidity: 47% Direction: 310° (NW)
Pressure: 30.04in Gusts: 0mph
Raw Report DataKAGC 252153Z 31006KT 10SM CLR 07/M04 A3004 RMK AO2 SLP185 T00671039
Traffic Incident Summary
Active as of:
Severity:
Category:
InformationThere was an issue retrieving the traffic information for this location. Please try a different location or try again shortly.
Advertisements
Track Severe Weather on mobile